x

9442396 - La Push, Wa (lapw1) Weather Station

4:36 - Fri 28th Jul 2017 All times are PDT. -7 hours from GMT.

  • Wind
    1mph, 2mph gusts
  • Sea Temp 46°f
  • Aire Temp 55°f
  • Sea Pressure 1020.2mb
  • 9442396 - La Push, Wa
  • 9442396 - La Push, Wa

More Historic Weather Station data

Upgrade to MSW Pro to gain access to the past 30 days of data for over 8000 Wavebouys and Weather Stations around the globe.

Join Pro

Comparision Forecast

View Surf forecast
   
vie 07/28 4:36 1 2 mph 1020.2mb 46f 55f
4:30 1 2 mph 1020.2mb 46f 55f
4:24 2 2 mph 1020.1mb 46f 55f
4:18 1 2 mph 1020.1mb 46f 56f
4:12 1 2 mph 1020.1mb 46f 56f
4:06  -  1 mph 1020.1mb 46f 55f
4:00  -  1 mph 1020.1mb 47f 55f
3:36  -  1 mph 1020.2mb 47f 55f
3:30  -  1 mph 1020.2mb 47f 55f
3:24 1 3 mph 1020.2mb 47f 55f
3:18 2 3 mph 1020.2mb 47f 55f
3:12 2 2 mph 1020.2mb 47f 55f
3:06  -  1 mph 1020.2mb 47f 55f
3:00 1 5 mph 1020.2mb 47f 55f
2:36 2 5 mph 1020.2mb 47f 55f
2:30 3 5 mph 1020.2mb 47f 55f
2:24 3 3 mph 1020.2mb 47f 55f
2:18  -  1 mph 1020.2mb 47f 55f
2:12  -  1 mph 1020.2mb 47f 55f
2:06  -  1 mph 1020.2mb 47f 55f
2:00 1 1 mph 1020.2mb 47f 55f
1:36 1 2 mph 1020.4mb 47f 55f
1:30 1 2 mph 1020.5mb 47f 55f
1:24  -  2 mph 1020.4mb 47f 55f
1:18  -  2 mph 1020.5mb 47f 55f
1:12  -  2 mph 1020.5mb 47f 55f
1:06  -  2 mph 1020.4mb 47f 55f
1:00 1 2 mph 1020.4mb 47f 55f
12:36  -  2 mph 1020.5mb 48f 54f
12:30  -  2 mph 1020.5mb 48f 54f
12:24 1 2 mph 1020.5mb 47f 53f
12:18  -  2 mph 1020.6mb 48f 53f
12:12 2 2 mph 1020.6mb 48f 54f
12:06  -  2 mph 1020.6mb 48f 54f
12:00 2 3 mph 1020.6mb 48f 54f
jue 07/27 11:36 3 6 mph 1020.5mb 49f 55f
11:30 2 5 mph 1020.5mb 49f 54f
11:24 2 3 mph 1020.5mb 50f 55f
11:18 1 2 mph 1020.6mb 50f 55f
11:12 2 3 mph 1020.6mb 51f 54f
11:06 1 2 mph 1020.6mb 51f 55f
11:00 2 3 mph 1020.6mb 51f 55f
10:36 2 5 mph 1020.9mb 51f 55f
10:30 1 2 mph 1020.9mb 50f 55f
10:24 1 2 mph 1020.9mb 51f 55f
10:18 1 2 mph 1021mb 51f 55f
10:12  -  1 mph 1021mb 51f 55f
10:06  -  2 mph 1021mb 51f 55f
10:00 2 3 mph 1021mb 51f 55f
9:36 6 7 mph 1020.9mb 49f 56f
9:30 6 7 mph 1020.9mb 49f 56f
9:24 6 7 mph 1020.9mb 49f 56f
9:18 6 8 mph 1020.8mb 48f 56f
9:12 7 8 mph 1020.8mb 48f 56f
9:06 8 9 mph 1020.9mb 47f 56f
9:00 7 8 mph 1020.8mb 47f 56f
8:36 8 10 mph 1020.8mb 46f 57f
8:30 8 10 mph 1020.8mb 46f 57f
8:24 8 10 mph 1020.8mb 46f 57f
8:18 7 9 mph 1020.9mb 46f 57f
8:12 7 9 mph 1021mb 46f 57f
8:06 7 8 mph 1021mb 46f 57f
8:00 8 10 mph 1021mb 46f 57f
7:36 10 14 mph 1021.1mb 46f 58f
7:30 10 11 mph 1021.1mb 46f 58f
7:24 9 11 mph 1021.2mb 46f 58f
7:18 9 11 mph 1021.2mb 46f 58f
7:12 9 11 mph 1021.3mb 46f 58f
7:06 9 10 mph 1021.3mb 46f 58f
7:00 9 10 mph 1021.4mb 46f 58f
6:36 9 11 mph 1021.5mb 46f 57f
6:30 8 9 mph 1021.5mb 46f 57f
6:24 7 8 mph 1021.6mb 46f 57f
6:18 7 9 mph 1021.7mb 46f 58f
6:12 8 9 mph 1021.7mb 46f 58f
6:06 7 9 mph 1021.7mb 46f 58f
6:00 7 9 mph 1021.7mb 46f 58f
5:36 7 8 mph 1021.9mb 46f 58f
5:30 7 8 mph 1022mb 46f 58f
5:24 7 8 mph 1022mb 46f 58f
5:18 7 8 mph 1022mb 46f 58f
5:12 7 8 mph 1022mb 46f 58f
5:06 6 8 mph 1022.1mb 46f 58f
5:00 7 8 mph 1022.2mb 46f 58f
4:36 5 6 mph 1022.4mb 46f 58f
4:30 6 7 mph 1022.4mb 46f 58f
4:24 6 7 mph 1022.5mb 46f 58f
4:18 6 8 mph 1022.6mb 46f 58f
4:12 7 8 mph 1022.7mb 46f 58f
4:06 6 7 mph 1022.7mb 46f 58f
4:00 5 7 mph 1022.7mb 46f 58f
3:36 3 6 mph 1022.6mb 46f 58f
3:30 3 5 mph 1022.6mb 46f 58f
3:24 3 6 mph 1022.6mb 46f 58f
3:18 3 5 mph 1022.6mb 46f 58f
3:12 5 5 mph 1022.7mb 46f 58f
3:06 3 5 mph 1022.7mb 46f 58f
3:00 3 5 mph 1022.7mb 46f 58f
2:36 2 3 mph 1022.9mb 46f 58f
2:30 2 5 mph 1022.9mb 46f 58f
2:24 2 3 mph 1022.9mb 46f 58f
2:18 2 3 mph 1022.9mb 46f 58f
2:12 2 3 mph 1022.8mb 46f 58f
2:06 2 2 mph 1022.9mb 46f 58f
2:00 2 3 mph 1022.9mb 46f 59f
1:36 2 2 mph 1022.8mb 47f 58f
1:30 2 2 mph 1022.8mb 47f 57f
1:24 1 2 mph 1022.8mb 47f 57f
1:18 1 2 mph 1022.8mb 46f 57f
1:12 2 3 mph 1022.8mb 46f 57f
1:06 2 2 mph 1022.8mb 46f 57f
1:00 2 5 mph 1022.9mb 46f 57f
12:36 2 3 mph 1022.8mb 47f 57f
12:30 3 3 mph 1022.8mb 47f 57f
12:24 2 3 mph 1022.8mb 47f 57f
12:18 3 3 mph 1022.8mb 47f 57f
12:12 3 5 mph 1022.7mb 47f 57f
12:06 3 5 mph 1022.7mb 47f 57f
12:00 3 5 mph 1022.6mb 47f 57f
11:36 5 6 mph 1022.5mb 51f 58f
11:30 3 6 mph 1022.5mb 51f 58f
11:24 5 6 mph 1022.4mb 53f 58f
11:18 6 7 mph 1022.4mb 54f 58f
11:12 5 6 mph 1022.3mb 54f 58f
11:06 3 7 mph 1022.3mb 55f 58f
11:00 6 7 mph 1022.3mb 55f 58f
10:36 5 6 mph 1022.3mb 56f 56f
10:30 3 5 mph 1022.3mb 56f 56f
10:24 3 6 mph 1022.3mb 56f 56f
10:18 2 3 mph 1022.3mb 56f 56f
10:12 2 5 mph 1022.3mb 56f 56f
10:06 1 3 mph 1022.2mb 56f 56f
10:00 1 2 mph 1022.1mb 56f 57f
9:36  -  1 mph 1022.1mb 57f 56f
9:30 1 1 mph 1022.1mb 57f 56f
9:24 1 2 mph 1022mb 57f 56f
9:18  -  2 mph 1022mb 57f 56f
9:12 2 3 mph 1022mb 57f 56f
9:06  -  1 mph 1022mb 57f 56f
9:00  -  1 mph 1022mb 56f 56f
8:36 1 2 mph 1021.9mb 56f 55f
8:30 2 2 mph 1022mb 55f 55f
8:24 1 3 mph 1021.9mb 53f 55f
8:18  -  2 mph 1021.9mb 53f 55f
8:12  -  2 mph 1021.9mb 50f 55f
8:06  -  3 mph 1021.8mb 49f 55f
8:00 3 5 mph 1021.8mb 49f 55f
7:36 1 3 mph 1021.7mb 47f 55f
7:30 2 3 mph 1021.7mb 47f 56f
7:24 2 3 mph 1021.7mb 47f 56f
7:18 2 3 mph 1021.6mb 47f 56f
7:12 1 2 mph 1021.6mb 47f 56f
7:06 1 2 mph 1021.6mb 47f 56f
7:00 2 3 mph 1021.5mb 47f 56f
6:36 2 3 mph 1021.3mb 47f 56f
6:30 1 2 mph 1021.3mb 47f 56f
6:24  -  1 mph 1021.3mb 47f 56f
6:18 1 2 mph 1021.2mb 47f 56f
6:12 1 2 mph 1021.2mb 47f 56f
6:06  -  1 mph 1021.2mb 47f 56f
6:00  -  1 mph 1021.1mb 47f 56f
5:54  -  1 mph 1021mb 47f 56f
5:48  -  1 mph 1021mb 47f 56f
5:36  -  2 mph 1020.9mb 47f 56f
5:30 1 2 mph 1020.8mb 47f 56f
5:24  -  2 mph 1020.8mb 47f 56f
5:18 1 2 mph 1020.8mb 47f 56f
5:12 2 2 mph 1020.9mb 47f 56f
5:06 2 2 mph 1020.8mb 47f 56f
5:00 1 2 mph 1020.8mb 47f 56f
4:54 2 3 mph 1020.8mb 47f 56f
4:48 1 2 mph 1020.8mb 47f 56f
4:36 1 2 mph 1020.7mb 47f 56f
4:30 1 2 mph 1020.7mb 47f 56f
4:24  -  1 mph 1020.6mb 47f 56f
4:18  -  2 mph 1020.5mb 47f 56f
4:12  -  1 mph 1020.5mb 47f 56f
4:06  -  2 mph 1020.4mb 47f 56f
4:00 1 2 mph 1020.4mb 47f 56f
3:54 2 3 mph 1020.5mb 47f 56f
3:48 2 3 mph 1020.5mb 47f 56f
3:36 3 5 mph 1020.5mb 47f 56f
3:30 5 7 mph 1020.6mb 47f 55f
3:24 6 6 mph 1020.6mb 47f 55f
3:18 5 6 mph 1020.6mb 47f 56f
3:12 5 6 mph 1020.6mb 47f 56f
3:06 3 6 mph 1020.6mb 47f 56f
3:00 3 3 mph 1020.6mb 47f 55f
2:54 2 5 mph 1020.6mb 47f 55f
2:48 3 3 mph 1020.5mb 47f 56f
2:36 2 3 mph 1020.5mb 47f 56f
2:30 2 5 mph 1020.5mb 47f 56f
2:24 3 5 mph 1020.5mb 47f 56f
2:18 2 3 mph 1020.5mb 47f 56f
2:12 2 5 mph 1020.5mb 48f 56f
2:06 3 5 mph 1020.5mb 47f 56f
2:00 3 6 mph 1020.5mb 48f 56f
1:54 2 3 mph 1020.5mb 47f 56f
1:48 3 5 mph 1020.5mb 48f 56f
1:36 3 3 mph 1020.5mb 48f 56f
1:30 3 5 mph 1020.5mb 48f 56f
1:24 2 3 mph 1020.4mb 48f 56f
1:18 3 5 mph 1020.4mb 48f 56f
1:12 3 5 mph 1020.4mb 48f 56f
1:06 3 5 mph 1020.4mb 47f 56f
1:00 3 6 mph 1020.5mb 47f 55f
12:54 3 5 mph 1020.5mb 47f 56f
12:48 3 5 mph 1020.7mb 47f 56f
12:36 3 5 mph 1020.6mb 47f 56f
12:30 3 3 mph 1020.6mb 47f 56f
12:24 2 3 mph 1020.5mb 47f 56f
12:18 2 3 mph 1020.5mb 48f 56f
12:12 3 5 mph 1020.4mb 48f 56f
12:06 3 6 mph 1020.4mb 48f 56f
12:00 5 6 mph 1020.5mb 48f 56f
mié 07/26 11:54 5 6 mph 1020.4mb 48f 56f
11:48 3 6 mph 1020.3mb 48f 56f
11:36 3 5 mph 1020.1mb 48f 56f
11:30 3 5 mph 1020.1mb 48f 56f
11:24 3 5 mph 1020mb 48f 56f
11:18 2 3 mph 1020mb 48f 56f
11:12 2 5 mph 1020mb 48f 56f
11:06 3 6 mph 1020mb 49f 56f
11:00 5 6 mph 1020.1mb 49f 56f
10:54 3 5 mph 1020.1mb 49f 56f
10:48 5 6 mph 1020mb 49f 56f
10:36 3 6 mph 1020mb 50f 56f
10:30 5 6 mph 1020mb 50f 56f
10:24 5 6 mph 1020mb 51f 56f
10:18 3 3 mph 1020mb 52f 56f
10:12 2 2 mph 1020.1mb 52f 56f
10:06 2 5 mph 1020mb 52f 55f
10:00 3 5 mph 1019.9mb 53f 55f
9:54 5 5 mph 1019.9mb 53f 56f
9:48 3 5 mph 1019.9mb 53f 56f
9:36 3 6 mph 1019.9mb 52f 56f
9:30 3 5 mph 1019.9mb 53f 56f
9:24 3 6 mph 1019.9mb 55f 56f
9:18 5 7 mph 1019.8mb 56f 56f
9:12 3 6 mph 1019.8mb 56f 56f
9:06 6 7 mph 1019.8mb 55f 57f
9:00 5 7 mph 1019.7mb 54f 57f
8:54 7 9 mph 1019.7mb 53f 56f
8:48 7 9 mph 1019.7mb 53f 56f
8:36 8 11 mph 1019.9mb 51f 56f
8:30 8 10 mph 1019.9mb 49f 56f
8:24 8 10 mph 1019.9mb 49f 56f
8:18 8 10 mph 1019.9mb 49f 56f
8:12 7 9 mph 1019.8mb 49f 56f
8:06 7 9 mph 1019.9mb 48f 56f
8:00 7 8 mph 1019.9mb 48f 56f
7:54 7 9 mph 1019.9mb 48f 56f
7:48 7 9 mph 1019.9mb 48f 57f
7:36 7 9 mph 1019.8mb 48f 57f
7:30 7 9 mph 1019.9mb 48f 57f
7:24 8 10 mph 1020mb 48f 57f
7:18 8 9 mph 1019.9mb 48f 57f
7:12 7 9 mph 1020mb 48f 57f
7:06 7 10 mph 1020mb 48f 57f
7:00 9 10 mph 1020.1mb 48f 57f
6:54 9 11 mph 1020.2mb 48f 57f
6:48 9 10 mph 1020.1mb 48f 57f
6:36 8 10 mph 1020.1mb 48f 57f
6:30 9 11 mph 1020.1mb 48f 57f
6:24 9 11 mph 1020.1mb 48f 57f
6:18 9 11 mph 1020.1mb 48f 57f
6:12 8 10 mph 1020.1mb 48f 57f
6:06 8 10 mph 1020.2mb 48f 56f
6:00 8 10 mph 1020.4mb 48f 57f
5:54 8 10 mph 1020.4mb 48f 57f
5:48 9 10 mph 1020.4mb 48f 56f
5:36 7 9 mph 1020.4mb 48f 56f
5:30 8 10 mph 1020.4mb 48f 56f
5:24 9 10 mph 1020.5mb 48f 56f
5:18 9 10 mph 1020.6mb 48f 56f
5:12 7 9 mph 1020.6mb 48f 56f
5:06 8 10 mph 1020.7mb 48f 56f
5:00 9 10 mph 1020.7mb 48f 56f
4:54 9 13 mph 1020.7mb 48f 56f
4:48 9 11 mph 1020.8mb 48f 56f
4:36 9 10 mph 1020.8mb 48f 56f
4:30 8 9 mph 1020.8mb 48f 56f
4:24 8 10 mph 1020.8mb 48f 56f
4:18 8 9 mph 1020.9mb 48f 56f
4:12 7 8 mph 1020.9mb 48f 56f
4:06 6 6 mph 1020.8mb 48f 56f
4:00 6 7 mph 1020.9mb 48f 56f
3:54 6 7 mph 1020.9mb 48f 56f
3:48 6 7 mph 1021mb 48f 56f
3:36 6 8 mph 1020.9mb 49f 56f
3:30 6 8 mph 1021mb 48f 56f
3:24 6 8 mph 1020.9mb 48f 56f
3:18 7 9 mph 1021mb 48f 56f
3:12 8 9 mph 1020.9mb 48f 56f
3:06 7 8 mph 1020.8mb 48f 56f
3:00 8 9 mph 1021mb 48f 56f
2:54 8 10 mph 1020.9mb 48f 56f
2:48 7 9 mph 1020.9mb 48f 56f
2:36 7 9 mph 1020.9mb 48f 56f
2:30 7 9 mph 1020.9mb 48f 56f
2:24 7 10 mph 1021mb 48f 56f
2:18 9 11 mph 1020.9mb 48f 56f
2:12 9 11 mph 1021mb 48f 56f
2:06 9 13 mph 1021mb 48f 56f
2:00 10 13 mph 1021mb 48f 56f
1:54 9 10 mph 1020.9mb 47f 56f
1:48 9 11 mph 1020.8mb 47f 56f
1:36 10 11 mph 1020.9mb 48f 56f
1:30 7 11 mph 1020.7mb 48f 56f
1:24 7 8 mph 1020.7mb 48f 56f
1:18 7 9 mph 1020.7mb 48f 56f
1:12 7 10 mph 1020.8mb 48f 56f
1:06 8 10 mph 1020.8mb 48f 56f
1:00 9 10 mph 1020.8mb 47f 56f
12:54 8 10 mph 1020.8mb 47f 56f
12:48 10 13 mph 1020.9mb 47f 56f
12:36 7 9 mph 1020.8mb 48f 56f
12:30 6 7 mph 1020.7mb 48f 56f
12:24 5 6 mph 1020.7mb 48f 56f
12:18 5 7 mph 1020.8mb 48f 56f
12:12 5 7 mph 1020.9mb 48f 56f
12:06 5 7 mph 1020.9mb 48f 56f
12:00 5 6 mph 1020.9mb 48f 56f
11:54 5 7 mph 1020.9mb 49f 56f
11:48 6 7 mph 1020.9mb 49f 56f
11:36 6 8 mph 1020.8mb 49f 56f
11:30 6 7 mph 1020.9mb 50f 56f
11:24 5 7 mph 1020.9mb 51f 56f
11:18 5 6 mph 1020.8mb 52f 56f
11:12 5 6 mph 1020.9mb 53f 56f
11:06 3 5 mph 1020.9mb 55f 56f
11:00 3 3 mph 1020.9mb 56f 56f
10:54 2 3 mph 1020.9mb 57f 56f
10:48 2 3 mph 1020.8mb 58f 55f
10:36 2 3 mph 1020.7mb 58f 55f
10:30 2 3 mph 1020.6mb 58f 55f
10:24 3 5 mph 1020.6mb 59f 56f
10:18 3 5 mph 1020.6mb 59f 55f
10:12 5 6 mph 1020.6mb 59f 56f
10:06 5 6 mph 1020.6mb 58f 55f
10:00 5 6 mph 1020.6mb 58f 55f
9:54 3 6 mph 1020.6mb 58f 55f
9:48 3 3 mph 1020.4mb 58f 56f
9:36 5 5 mph 1020.4mb 58f 56f
9:30 3 5 mph 1020.4mb 58f 56f
9:24 2 3 mph 1020.4mb 58f 56f
9:18 3 3 mph 1020.4mb 58f 56f
9:12 2 3 mph 1020.4mb 58f 56f
9:06 2 3 mph 1020.4mb 59f 56f
9:00 3 5 mph 1020.4mb 59f 56f
8:54 2 2 mph 1020.2mb 59f 56f
8:48 2 3 mph 1020.2mb 59f 56f
8:36 2 3 mph 1020.3mb 59f 56f
8:30 1 1 mph 1020.2mb 59f 56f
8:24 1 2 mph 1020.2mb 59f 56f
8:18 2 2 mph 1020.3mb 59f 56f
8:12  -  1 mph 1020.2mb 58f 56f
8:06  -  2 mph 1020.2mb 58f 56f
8:00 1 2 mph 1020.2mb 58f 55f
7:54  -  2 mph 1020.2mb 57f 55f
7:48 2 2 mph 1020.1mb 57f 55f
7:36  -  2 mph 1020mb 55f 56f
7:30  -  1 mph 1019.8mb 54f 56f
7:24  -  0 mph 1019.8mb 53f 56f
7:18  -  0 mph 1019.8mb 52f 55f
7:12  -  0 mph 1019.9mb 51f 55f
7:06  -  1 mph 1020mb 51f 55f
7:00 1 2 mph 1020mb 50f 55f
6:54  -  2 mph 1020mb 49f 55f
6:48  -  1 mph 1020mb 49f 55f
6:36  -  1 mph 1020mb 49f 55f
6:30 1 2 mph 1019.9mb 49f 55f
6:24  -  1 mph 1019.8mb 49f 55f
6:18 1 2 mph 1019.8mb 49f 55f
6:12 1 1 mph 1019.8mb 48f 55f
6:06  -  1 mph 1019.8mb 48f 55f
6:00  -  1 mph 1019.8mb 48f 55f
5:54  -  1 mph 1019.7mb 48f 55f
5:48 1 1 mph 1019.6mb 48f 55f
5:36  -  1 mph 1019.6mb 48f 55f
5:30 2 2 mph 1019.6mb 48f 55f
5:24 1 1 mph 1019.5mb 48f 55f
5:18  -  2 mph 1019.4mb 48f 55f
5:12 1 2 mph 1019.5mb 48f 55f
5:06 1 2 mph 1019.4mb 48f 55f
5:00 1 2 mph 1019.4mb 48f 55f
4:54 1 3 mph 1019.3mb 48f 55f
4:48 2 3 mph 1019.3mb 48f 55f
4:36 2 3 mph 1019.4mb 48f 55f
4:30 3 5 mph 1019.4mb 48f 55f
4:24 3 5 mph 1019.4mb 48f 55f
4:18 3 5 mph 1019.4mb 48f 55f
4:12 3 5 mph 1019.5mb 48f 55f
4:06 3 5 mph 1019.5mb 48f 55f
4:00 3 5 mph 1019.5mb 48f 55f
3:54 3 5 mph 1019.4mb 48f 55f
3:48 5 5 mph 1019.4mb 48f 55f
3:36 3 6 mph 1019.2mb 48f 55f
3:30 6 6 mph 1019.2mb 48f 55f
3:24 6 6 mph 1019.2mb 49f 55f
3:18 3 5 mph 1019.1mb 48f 55f
3:12 3 5 mph 1019.1mb 48f 55f
3:06 3 6 mph 1019.2mb 48f 55f
3:00 5 5 mph 1019.2mb 48f 56f
2:54 3 6 mph 1019.1mb 48f 56f
2:48 3 6 mph 1019.2mb 48f 56f
2:36 3 7 mph 1019.1mb 49f 55f
2:30 6 7 mph 1019.2mb 49f 55f
2:24 6 7 mph 1019.2mb 49f 56f
2:18 5 8 mph 1019.2mb 49f 56f
2:12 6 8 mph 1019.3mb 48f 56f
2:06 6 11 mph 1019.2mb 49f 56f
2:00 7 9 mph 1019.2mb 49f 56f
1:54 6 8 mph 1019.2mb 48f 56f
1:48 5 9 mph 1019.2mb 48f 56f
1:36 5 10 mph 1019.3mb 48f 55f
1:30 7 9 mph 1019.2mb 49f 55f
1:24 6 11 mph 1019.2mb 49f 55f
1:18 11 14 mph 1019.1mb 49f 55f
1:12 9 11 mph 1019.2mb 49f 55f
1:06 8 9 mph 1019.2mb 49f 55f
1:00 9 11 mph 1019.1mb 49f 55f
12:54 9 11 mph 1019.1mb 49f 55f
12:48 9 10 mph 1019.1mb 49f 55f
12:36 8 10 mph 1019.2mb 49f 55f
12:30 10 14 mph 1019.1mb 49f 55f
12:24 11 14 mph 1019.1mb 50f 55f
12:18 10 13 mph 1019.3mb 50f 56f
12:12 11 15 mph 1019.3mb 50f 55f
12:06 10 13 mph 1019.3mb 51f 56f
12:00 8 10 mph 1019.2mb 51f 56f
mar 07/25 11:54 9 10 mph 1019.1mb 51f 56f
11:48 10 13 mph 1019.2mb 51f 56f
11:36 8 10 mph 1019.1mb 51f 56f
11:30 8 11 mph 1019.1mb 51f 56f
11:24 10 13 mph 1019.1mb 51f 56f
11:18 9 16 mph 1019mb 51f 56f
11:12 14 17 mph 1019.1mb 51f 57f
11:06 11 14 mph 1019mb 51f 57f
11:00 10 15 mph 1018.9mb 51f 56f
10:54 11 14 mph 1018.9mb 51f 56f
10:48 11 16 mph 1018.8mb 51f 56f
10:36 11 14 mph 1018.9mb 52f 57f
10:30 8 9 mph 1018.8mb 52f 57f
10:24 9 10 mph 1018.8mb 52f 57f
10:18 8 11 mph 1018.8mb 52f 57f
10:12 9 11 mph 1018.7mb 52f 57f
10:06 9 11 mph 1018.8mb 53f 57f
10:00 10 13 mph 1018.8mb 53f 57f
9:54 10 14 mph 1018.7mb 53f 57f
9:48 11 16 mph 1018.7mb 53f 56f
9:36 11 15 mph 1018.7mb 55f 56f
9:30 13 20 mph 1018.7mb 55f 57f
9:24 13 16 mph 1018.7mb 56f 57f
9:18 13 17 mph 1018.7mb 56f 56f
9:12 11 15 mph 1018.6mb 56f 56f
9:06 11 14 mph 1018.6mb 57f 56f
9:00 10 16 mph 1018.6mb 58f 56f
8:54 13 15 mph 1018.6mb 59f 56f
8:48 14 15 mph 1018.6mb 60f 56f
8:36 11 15 mph 1018.5mb 60f 56f
8:30 14 18 mph 1018.5mb 59f 56f
8:24 14 16 mph 1018.5mb 59f 56f
8:18 14 20 mph 1018.5mb 58f 56f
8:12 15 18 mph 1018.5mb 58f 56f
8:06 14 18 mph 1018.5mb 57f 56f
8:00 11 16 mph 1018.5mb 56f 56f
7:54 14 17 mph 1018.5mb 55f 56f
7:48 15 21 mph 1018.5mb 55f 57f
7:36 15 18 mph 1018.4mb 51f 57f
7:30 16 20 mph 1018.5mb 51f 57f
7:24 15 18 mph 1018.4mb 51f 56f
7:18 14 18 mph 1018.4mb 50f 56f
7:12 15 18 mph 1018.5mb 50f 56f
7:06 14 16 mph 1018.5mb 50f 56f
7:00 14 16 mph 1018.5mb 50f 56f
6:54 14 18 mph 1018.6mb 50f 57f
6:48 15 18 mph 1018.6mb 50f 56f
6:36 15 16 mph 1018.6mb 50f 57f
6:30 15 17 mph 1018.5mb 50f 57f
6:24 14 16 mph 1018.5mb 50f 56f
6:18 13 15 mph 1018.5mb 50f 56f
6:12 14 16 mph 1018.6mb 50f 56f
6:06 13 16 mph 1018.5mb 50f 56f
6:00 14 16 mph 1018.5mb 50f 56f
5:54 14 16 mph 1018.5mb 50f 56f
5:48 13 16 mph 1018.5mb 50f 56f
5:36 14 17 mph 1018.6mb 50f 56f
5:30 14 16 mph 1018.6mb 49f 56f
5:24 14 16 mph 1018.7mb 49f 56f
5:18 14 16 mph 1018.6mb 49f 56f
5:12 14 18 mph 1018.6mb 49f 56f
5:06 14 18 mph 1018.6mb 49f 56f
5:00 14 20 mph 1018.6mb 49f 57f
4:54 14 16 mph 1018.6mb 49f 56f
4:48 14 17 mph 1018.7mb 49f 56f
4:36 15 18 mph 1018.7mb 49f 56f
4:30 14 17 mph 1018.7mb 49f 56f
4:24 15 17 mph 1018.7mb 50f 56f
4:18 15 20 mph 1018.8mb 49f 56f
4:12 15 17 mph 1018.8mb 49f 56f
4:06 14 18 mph 1018.8mb 49f 56f
4:00 15 17 mph 1018.9mb 49f 56f
3:54 15 18 mph 1018.9mb 49f 56f
3:48 15 18 mph 1018.9mb 49f 56f
3:36 13 15 mph 1018.9mb 49f 56f
3:30 14 16 mph 1018.9mb 49f 56f
3:24 14 16 mph 1018.9mb 49f 56f
3:18 14 16 mph 1018.9mb 49f 56f
3:12 15 20 mph 1018.9mb 49f 56f
3:06 15 17 mph 1018.9mb 49f 56f
3:00 14 16 mph 1018.9mb 49f 56f
2:54 13 17 mph 1018.9mb 49f 56f
2:48 14 16 mph 1018.9mb 49f 56f
2:36 15 17 mph 1019mb 49f 56f
2:30 16 17 mph 1019mb 49f 56f
2:24 14 16 mph 1019mb 49f 56f
2:18 10 14 mph 1019mb 49f 56f
2:12 9 11 mph 1019mb 49f 56f
2:06 9 13 mph 1019mb 49f 56f
2:00 11 13 mph 1019.1mb 49f 56f
1:54 10 11 mph 1019.1mb 49f 56f
1:36 8 10 mph 1019mb 49f 55f
1:30 7 10 mph 1019mb 49f 55f
1:24 8 10 mph 1019mb 49f 55f
1:18 8 10 mph 1018.9mb 49f 56f
1:12 7 10 mph 1019mb 49f 56f
1:06 9 11 mph 1019mb 49f 56f
1:00 10 13 mph 1019mb 49f 56f
12:54 10 11 mph 1018.9mb 49f 56f
12:48 9 10 mph 1018.9mb 49f 56f
12:36 8 10 mph 1018.9mb 49f 56f
12:30 8 10 mph 1018.9mb 49f 56f
12:24 9 10 mph 1018.9mb 49f 56f
12:18 8 10 mph 1018.9mb 49f 56f
12:12 6 8 mph 1018.9mb 49f 56f
12:06 7 10 mph 1018.9mb 49f 56f
12:00 7 8 mph 1018.9mb 49f 56f
11:54 7 9 mph 1018.8mb 49f 56f
11:48 7 9 mph 1018.8mb 49f 56f
11:36 8 9 mph 1018.8mb 49f 56f
11:30 7 10 mph 1018.8mb 50f 55f
11:24 7 9 mph 1018.8mb 50f 55f
11:18 6 7 mph 1018.7mb 50f 55f
11:12 6 8 mph 1018.6mb 50f 56f
11:06 6 8 mph 1018.6mb 51f 55f
11:00 6 8 mph 1018.6mb 51f 55f
10:54 6 8 mph 1018.6mb 52f 55f
10:48 6 8 mph 1018.4mb 53f 55f
10:36 7 8 mph 1018.6mb 55f 55f
10:30 6 8 mph 1018.5mb 56f 55f
10:24 5 6 mph 1018.4mb 57f 55f
10:18 6 6 mph 1018.4mb 57f 55f
10:12 5 6 mph 1018.4mb 58f 55f
10:06 3 6 mph 1018.3mb 58f 55f
10:00 5 6 mph 1018.3mb 58f 56f
9:54 2 5 mph 1018.3mb 58f 55f
9:48 3 5 mph 1018.3mb 58f 55f
9:36 2 5 mph 1018.3mb 58f 55f
9:30 3 6 mph 1018.3mb 58f 55f
9:24 3 6 mph 1018.3mb 58f 55f
9:18 5 7 mph 1018.3mb 58f 55f
9:12 5 6 mph 1018.2mb 58f 55f
9:06 5 6 mph 1018.2mb 58f 55f
9:00 3 5 mph 1018.2mb 58f 55f
8:54 3 5 mph 1018.1mb 58f 55f
8:48 3 6 mph 1018.1mb 58f 56f
8:36 2 3 mph 1018mb 58f 56f
8:30 1 3 mph 1018mb 58f 55f
8:24 3 5 mph 1017.9mb 58f 55f
8:18 1 3 mph 1017.9mb 58f 55f
8:12 2 2 mph 1017.9mb 58f 55f
8:06 1 3 mph 1017.8mb 58f 55f
8:00  -  2 mph 1017.8mb 58f 55f
7:54  -  1 mph 1017.7mb 58f 54f
7:48 1 2 mph 1017.7mb 58f 54f
7:36 1 2 mph 1017.6mb 58f 53f
7:30 2 3 mph 1017.5mb 58f 53f
7:24 2 3 mph 1017.6mb 58f 53f
7:18 3 3 mph 1017.5mb 59f 52f
7:12 3 5 mph 1017.5mb 59f 52f
7:06 5 6 mph 1017.5mb 58f 52f
7:00 3 5 mph 1017.5mb 58f 52f
6:54 5 5 mph 1017.5mb 57f 51f
6:48 3 5 mph 1017.5mb 57f 51f
6:36 2 5 mph 1017.4mb 55f 51f
6:30 5 6 mph 1017.3mb 54f 51f
6:24 5 6 mph 1017.3mb 53f 51f
6:18 5 6 mph 1017.3mb 51f 51f
6:12 6 7 mph 1017.3mb 51f 51f
6:06 6 7 mph 1017.2mb 50f 51f
6:00 6 7 mph 1017mb 50f 51f
5:54 6 7 mph 1017mb 50f 51f
5:48 5 7 mph 1017mb 50f 51f
5:36 5 6 mph 1016.9mb 50f 51f
5:30 5 6 mph 1016.9mb 49f 51f
5:24 5 6 mph 1016.9mb 49f 51f
5:18 5 6 mph 1016.8mb 49f 51f
5:12 5 6 mph 1016.8mb 49f 51f
5:06 6 6 mph 1016.8mb 49f 51f
5:00 5 7 mph 1016.7mb 49f 52f
4:54 6 6 mph 1016.7mb 49f 52f
4:48 5 6 mph 1016.7mb 49f 52f
4:36 3 5 mph 1016.8mb 49f 52f
4:30 3 3 mph 1016.7mb 49f 51f
4:24 2 3 mph 1016.8mb 49f 52f
4:18 1 3 mph 1016.8mb 49f 52f
4:12 3 3 mph 1016.8mb 49f 52f
4:06 3 3 mph 1016.8mb 49f 52f
4:00 2 2 mph 1016.7mb 49f 53f
3:54 2 2 mph 1016.8mb 49f 53f
3:48 2 2 mph 1016.8mb 49f 53f
3:36 1 1 mph 1016.8mb 49f 53f
3:30 1 2 mph 1016.8mb 49f 54f
3:24 1 1 mph 1016.8mb 49f 53f
3:18  -  0 mph 1016.9mb 49f 54f
3:12  -  1 mph 1016.9mb 49f 54f
3:06  -  1 mph 1016.8mb 49f 53f
3:00 1 2 mph 1016.8mb 49f 53f
2:54 2 3 mph 1016.8mb 49f 54f
2:48 1 2 mph 1016.8mb 49f 54f
2:36  -  2 mph 1016.6mb 49f 54f
2:30 2 3 mph 1016.6mb 49f 55f
2:24 3 5 mph 1016.6mb 49f 55f
2:18 3 6 mph 1016.6mb 49f 54f
2:12 5 6 mph 1016.6mb 49f 55f
2:06 5 6 mph 1016.6mb 49f 55f
2:00 5 6 mph 1016.7mb 49f 55f
1:54 5 5 mph 1016.6mb 49f 55f
1:48 3 5 mph 1016.6mb 49f 55f
1:36 3 5 mph 1016.6mb 49f 55f
1:30 3 6 mph 1016.6mb 49f 55f
1:24 5 6 mph 1016.6mb 49f 55f
1:18 3 5 mph 1016.5mb 49f 56f
1:12 3 6 mph 1016.6mb 49f 56f
1:06 5 5 mph 1016.5mb 49f 56f
1:00 2 2 mph 1016.4mb 49f 56f
12:54 2 2 mph 1016.4mb 49f 56f
12:48 1 2 mph 1016.4mb 49f 55f
12:36 3 6 mph 1016.4mb 49f 56f
12:30 3 5 mph 1016.3mb 49f 55f
12:24 3 5 mph 1016.3mb 49f 55f
12:18 2 5 mph 1016.4mb 49f 55f
12:12 2 3 mph 1016.3mb 49f 56f
12:06 2 3 mph 1016.3mb 49f 55f
12:00  -  2 mph 1016.3mb 49f 56f
lun 07/24 11:54  -  3 mph 1016.3mb 49f 56f
11:48 1 2 mph 1016.2mb 50f 56f
11:36 1 6 mph 1016.2mb 50f 55f
11:30 5 7 mph 1016.2mb 49f 56f
11:24 6 9 mph 1016.2mb 49f 56f
11:18 6 7 mph 1016.1mb 49f 55f
11:12 6 7 mph 1016.1mb 49f 56f
11:06 6 8 mph 1016.1mb 49f 56f
11:00 7 9 mph 1016.1mb 49f 56f
10:54 7 9 mph 1016.1mb 49f 56f
10:48 8 10 mph 1016.2mb 49f 56f
10:36 8 10 mph 1016.2mb 49f 56f
10:30 9 13 mph 1016.2mb 49f 56f
10:24 9 11 mph 1016.2mb 49f 56f
10:18 9 11 mph 1016.2mb 50f 56f
10:12 9 11 mph 1016.1mb 50f 56f
10:06 9 11 mph 1016.1mb 50f 56f
10:00 9 13 mph 1016.1mb 50f 56f
9:54 9 11 mph 1016.1mb 50f 56f
9:48 9 13 mph 1016.1mb 50f 56f
9:36 10 13 mph 1016mb 51f 56f
9:30 10 13 mph 1016mb 51f 56f
9:24 10 14 mph 1015.9mb 51f 56f
9:18 9 14 mph 1015.9mb 52f 56f
9:12 11 14 mph 1015.9mb 52f 57f
9:06 11 14 mph 1015.9mb 53f 56f
9:00 13 15 mph 1015.9mb 53f 57f
8:54 13 15 mph 1015.9mb 53f 56f
8:48 11 14 mph 1015.9mb 53f 57f
8:36 14 18 mph 1015.9mb 55f 57f
8:30 14 17 mph 1015.9mb 55f 57f
8:24 13 16 mph 1015.9mb 56f 57f
8:18 14 17 mph 1015.9mb 56f 57f
8:12 14 20 mph 1015.8mb 57f 57f
8:06 15 18 mph 1015.8mb 57f 57f
8:00 15 18 mph 1015.8mb 58f 57f
7:54 15 20 mph 1015.8mb 58f 57f
7:48 15 20 mph 1015.8mb 58f 57f
7:36 15 20 mph 1015.6mb 58f 57f
7:30 16 18 mph 1015.7mb 58f 57f
7:24 16 20 mph 1015.7mb 57f 57f
7:18 16 20 mph 1015.7mb 57f 57f
7:12 16 20 mph 1015.7mb 56f 57f
7:06 16 20 mph 1015.7mb 53f 57f
7:00 16 21 mph 1015.7mb 52f 57f
6:54 16 22 mph 1015.7mb 52f 57f
6:48 17 21 mph 1015.8mb 52f 57f
6:36 17 21 mph 1015.8mb 51f 57f
6:30 17 22 mph 1015.9mb 51f 57f
6:24 18 22 mph 1015.9mb 50f 57f
6:18 18 22 mph 1015.9mb 49f 57f
6:12 20 22 mph 1016mb 49f 57f
6:06 20 23 mph 1016mb 49f 57f
6:00 20 24 mph 1016mb 49f 56f
5:54 17 22 mph 1016mb 49f 57f
5:48 18 21 mph 1016mb 49f 57f
5:36 17 21 mph 1015.9mb 49f 57f
5:30 17 21 mph 1016mb 48f 57f
5:24 17 20 mph 1016mb 48f 57f
5:18 17 20 mph 1016mb 48f 57f
5:12 17 21 mph 1016.1mb 48f 57f
5:06 17 22 mph 1016.1mb 48f 57f
5:00 18 22 mph 1016.2mb 48f 57f
4:54 17 21 mph 1016.2mb 48f 56f
4:48 16 20 mph 1016.3mb 48f 56f
4:36 17 20 mph 1016.4mb 48f 56f
4:30 17 21 mph 1016.4mb 48f 56f
4:24 18 21 mph 1016.4mb 48f 57f
4:18 18 22 mph 1016.5mb 48f 57f
4:12 18 22 mph 1016.5mb 48f 57f
4:06 18 22 mph 1016.4mb 48f 57f
4:00 18 21 mph 1016.5mb 48f 57f
3:54 17 22 mph 1016.5mb 48f 57f
3:48 17 21 mph 1016.6mb 48f 57f
3:36 17 21 mph 1016.5mb 48f 56f
3:30 17 20 mph 1016.7mb 48f 56f
3:24 17 18 mph 1016.6mb 48f 56f
3:18 16 20 mph 1016.6mb 48f 56f
3:12 16 20 mph 1016.7mb 48f 56f
3:06 15 17 mph 1016.8mb 48f 56f
3:00 16 18 mph 1016.8mb 48f 56f
2:54 16 18 mph 1016.9mb 47f 56f
2:48 16 17 mph 1016.9mb 47f 56f
2:36 14 16 mph 1016.8mb 47f 56f
2:30 14 15 mph 1016.9mb 47f 56f
2:24 14 16 mph 1017mb 47f 56f
2:18 13 15 mph 1017mb 47f 56f
2:12 13 15 mph 1017.1mb 47f 56f
2:06 11 14 mph 1016.9mb 47f 56f
2:00 10 13 mph 1016.9mb 47f 56f
1:54 10 14 mph 1016.9mb 47f 56f
1:48 11 14 mph 1016.9mb 47f 56f
1:36 10 14 mph 1017.1mb 47f 56f
1:30 11 13 mph 1017.2mb 48f 56f
1:24 9 11 mph 1017.2mb 48f 56f
1:18 9 11 mph 1017.2mb 48f 56f
1:12 9 11 mph 1017.2mb 48f 56f
1:06 8 9 mph 1017.2mb 48f 56f